Weather

EOSM Weather Station at 8:50 on 20/02/18

Wind: 10kt W ( 11mph 273° ) Today's High: 24kt at 2:21 QFE: 1018mb QNH: 1022mb (Rising Rapidly) Temp: 5°C Dew Point: 3°C Humidity: 89% Rain: None Sunrise: 7:24 Sunset: 17:24

TAFs

  • Edinburgh TAF EGPH 200458Z 2006/2106 25010KT 9999 FEW040 BECMG 2012/2015 33005KT PROB30 TEMPO 2102/2106 7000
  • Leuchars TAF EGQL 200734Z 2009/2018 30012KT 9999 FEW025

Live Airfield Webcams

Looking north towards Berwick Law Looking west Looking east

Windy.com Forecast

Met Office Five Day Forecast

OZEE AND BLUE SKY BLUE FLYING SUITS

We are offering a 5% discount on the price of Ozee and Blue Sky Blue flying suits - please send an email to jill@eosm.co.uk giving your choice of suit, size and colour preference.

Pooleys advert

Pooleys are supporting East of Scotland Microlights members and guests by offering 5% discount to anyone making a purchase on their website www.pooleys.com. Simply enter the promotional code "EOSM" when you checkout and you will get a 5% discount on whatever you buy.